Time;durP1;ratioP1;P1;durP2;ratioP2;P2;SDS_P1;SDS_P2;PMS_P1;PMS_P2;Temp;Humidity;BMP_temperature;BMP_pressure;BME280_temperature;BME280_humidity;BME280_pressure;Samples;Min_cycle;Max_cycle;Signal;HPM_P1;HPM_P2
2021/09/12 00:00:20;;;;;;;14.57;12.38;;;19.90;97.20;;;;;;5072622;28;20040;-70
2021/09/12 00:02:45;;;;;;;13.70;12.40;;;19.90;97.10;;;;;;5074084;28;20043;-68
2021/09/12 00:05:11;;;;;;;15.05;12.38;;;19.90;97.10;;;;;;5076768;28;20063;-69
2021/09/12 00:07:37;;;;;;;16.05;14.45;;;19.80;97.10;;;;;;5075757;28;20028;-64
2021/09/12 00:10:04;;;;;;;15.55;13.30;;;19.70;97.40;;;;;;5074588;28;20028;-65
2021/09/12 00:12:30;;;;;;;17.38;13.95;;;19.70;97.50;;;;;;5076345;28;20062;-64
2021/09/12 00:14:56;;;;;;;15.00;12.98;;;19.70;97.50;;;;;;5075923;28;20622;-68
2021/09/12 00:17:22;;;;;;;15.65;14.02;;;19.70;97.50;;;;;;5076224;28;20083;-65
2021/09/12 00:19:47;;;;;;;14.20;12.80;;;19.70;97.50;;;;;;5078343;28;20028;-64
2021/09/12 00:22:13;;;;;;;14.25;12.77;;;19.70;97.50;;;;;;5095399;28;20085;-63
2021/09/12 00:24:39;;;;;;;15.05;13.27;;;19.60;97.40;;;;;;5095894;28;20093;-66
2021/09/12 00:27:04;;;;;;;15.55;13.45;;;19.50;97.60;;;;;;5096112;28;20479;-66
2021/09/12 00:29:30;;;;;;;15.55;13.45;;;19.50;97.60;;;;;;5094598;28;20580;-64
2021/09/12 00:31:55;;;;;;;18.30;13.80;;;19.50;97.80;;;;;;5095448;28;20043;-64
2021/09/12 00:34:21;;;;;;;16.52;14.70;;;19.50;97.80;;;;;;5095490;28;20569;-65
2021/09/12 00:36:47;;;;;;;15.32;13.70;;;19.50;97.80;;;;;;5095556;28;20097;-66
2021/09/12 00:39:12;;;;;;;15.30;13.73;;;19.40;97.90;;;;;;5096152;28;20032;-66
2021/09/12 00:41:39;;;;;;;27.83;22.88;;;19.40;97.90;;;;;;5095764;28;20036;-67
2021/09/12 00:44:09;;;;;;;45.70;34.20;;;19.40;98.00;;;;;;5095382;28;20031;-66
2021/09/12 00:46:41;;;;;;;41.50;31.25;;;19.40;98.10;;;;;;5089090;28;20111;-65
2021/09/12 00:49:07;;;;;;;57.15;40.38;;;19.50;98.10;;;;;;5084061;28;20039;-64
2021/09/12 00:51:33;;;;;;;45.40;34.53;;;19.50;98.00;;;;;;5094406;28;20020;-64
2021/09/12 00:54:02;;;;;;;23.92;18.38;;;19.50;97.90;;;;;;5080770;28;20071;-63
2021/09/12 00:56:29;;;;;;;19.05;15.65;;;19.50;97.90;;;;;;5074996;28;20029;-65
2021/09/12 00:58:56;;;;;;;16.95;15.23;;;19.40;97.90;;;;;;5074696;28;20099;-66
2021/09/12 01:01:25;;;;;;;18.55;14.82;;;19.30;98.00;;;;;;5074912;28;20036;-66
2021/09/12 01:03:52;;;;;;;17.02;15.13;;;19.40;98.10;;;;;;5074945;28;20045;-64
2021/09/12 01:06:20;;;;;;;18.20;15.43;;;19.30;98.30;;;;;;5075622;28;20029;-65
2021/09/12 01:08:45;;;;;;;17.20;14.30;;;19.30;98.20;;;;;;5074812;28;20757;-64
2021/09/12 01:11:11;;;;;;;16.88;14.38;;;19.30;98.10;;;;;;5074659;28;20048;-65
2021/09/12 01:13:42;;;;;;;16.73;14.93;;;19.20;98.30;;;;;;5074509;28;20043;-64
2021/09/12 01:16:12;;;;;;;16.50;14.15;;;19.10;98.40;;;;;;5074919;28;20507;-65
2021/09/12 01:18:39;;;;;;;17.30;15.30;;;19.20;98.40;;;;;;5074638;28;20036;-66
2021/09/12 01:21:05;;;;;;;16.23;13.50;;;19.20;98.40;;;;;;5089210;28;20028;-65
2021/09/12 01:23:30;;;;;;;15.60;13.63;;;19.10;98.40;;;;;;5093990;28;20032;-65
2021/09/12 01:25:56;;;;;;;14.55;12.75;;;19.10;98.50;;;;;;5089909;28;20515;-66
2021/09/12 01:28:22;;;;;;;15.07;13.15;;;19.20;98.50;;;;;;5096060;28;20031;-71
2021/09/12 01:30:48;;;;;;;15.23;13.63;;;19.20;98.40;;;;;;5102564;28;20045;-67
2021/09/12 01:33:14;;;;;;;14.80;13.23;;;19.30;98.30;;;;;;5095497;28;20028;-66
2021/09/12 01:35:39;;;;;;;16.95;15.15;;;19.30;98.10;;;;;;5112746;28;20035;-65
2021/09/12 01:38:05;;;;;;;15.75;14.23;;;19.30;98.10;;;;;;5102771;28;20085;-66
2021/09/12 01:40:31;;;;;;;16.27;14.68;;;19.30;98.20;;;;;;5095147;28;20569;-68
2021/09/12 01:42:59;;;;;;;16.58;14.65;;;19.30;98.10;;;;;;5095034;28;20036;-66
2021/09/12 01:45:25;;;;;;;16.95;15.07;;;19.30;98.20;;;;;;5094099;28;20036;-66
2021/09/12 01:47:50;;;;;;;16.08;13.90;;;19.30;98.10;;;;;;5093549;28;20046;-66
2021/09/12 01:50:17;;;;;;;17.55;15.30;;;19.20;98.40;;;;;;5093077;28;20423;-67
2021/09/12 01:52:43;;;;;;;16.90;15.10;;;19.20;98.40;;;;;;5093442;28;20024;-66
2021/09/12 01:55:09;;;;;;;18.25;15.50;;;19.10;98.50;;;;;;5094729;28;20035;-66
2021/09/12 01:57:35;;;;;;;17.70;14.90;;;19.10;98.40;;;;;;5094245;28;20089;-69
2021/09/12 02:00:01;;;;;;;17.77;15.43;;;19.00;98.70;;;;;;5076731;28;20036;-70
2021/09/12 02:02:27;;;;;;;15.98;14.15;;;19.00;98.60;;;;;;5093661;28;20040;-67
2021/09/12 02:04:52;;;;;;;16.95;15.25;;;19.10;98.70;;;;;;5075237;28;20036;-61
2021/09/12 02:07:18;;;;;;;15.98;14.38;;;19.10;98.40;;;;;;5081807;28;20373;-64
2021/09/12 02:09:43;;;;;;;16.27;13.48;;;19.10;98.50;;;;;;5071872;28;20439;-57
2021/09/12 02:12:09;;;;;;;16.98;14.30;;;19.10;98.50;;;;;;5072821;28;20426;-57
2021/09/12 02:14:34;;;;;;;18.17;14.75;;;19.10;98.60;;;;;;5084934;28;20059;-67
2021/09/12 02:17:00;;;;;;;15.82;14.13;;;19.10;98.50;;;;;;5077072;28;20051;-68
2021/09/12 02:19:26;;;;;;;15.18;13.55;;;19.10;98.60;;;;;;5082505;28;20083;-67
2021/09/12 02:21:51;;;;;;;14.18;12.52;;;19.00;98.70;;;;;;5092468;28;20040;-63
2021/09/12 02:24:17;;;;;;;15.07;11.65;;;19.10;98.80;;;;;;5085818;28;20403;-67
2021/09/12 02:26:42;;;;;;;12.55;11.25;;;19.10;98.70;;;;;;5074827;28;20024;-65
2021/09/12 02:29:08;;;;;;;15.85;12.65;;;19.20;98.70;;;;;;5084078;28;20517;-67
2021/09/12 02:31:33;;;;;;;15.05;12.07;;;19.20;98.50;;;;;;5085708;28;20077;-68
2021/09/12 02:33:59;;;;;;;16.02;13.70;;;19.30;98.40;;;;;;5083510;28;20032;-66
2021/09/12 02:36:25;;;;;;;15.90;13.60;;;19.30;98.20;;;;;;5094234;28;20067;-66
2021/09/12 02:38:50;;;;;;;15.25;13.23;;;19.30;98.20;;;;;;5091122;28;20071;-66
2021/09/12 02:41:16;;;;;;;15.63;12.90;;;19.30;98.20;;;;;;5091923;28;20491;-66
2021/09/12 02:43:42;;;;;;;15.45;13.82;;;19.30;98.40;;;;;;5092770;28;20479;-67
2021/09/12 02:46:08;;;;;;;17.23;14.32;;;19.30;98.30;;;;;;5076461;28;20078;-63
2021/09/12 02:48:33;;;;;;;18.90;15.60;;;19.30;98.10;;;;;;5072941;28;20039;-60
2021/09/12 02:50:59;;;;;;;17.63;15.75;;;19.20;98.30;;;;;;5086649;28;20100;-55
2021/09/12 02:53:24;;;;;;;16.70;14.98;;;19.20;98.20;;;;;;5093112;28;20143;-63
2021/09/12 02:55:50;;;;;;;19.67;16.77;;;19.20;98.00;;;;;;5093447;28;20043;-63
2021/09/12 02:58:15;;;;;;;19.15;16.88;;;19.00;98.30;;;;;;5084493;28;20043;-63
2021/09/12 03:00:41;;;;;;;18.08;16.27;;;18.90;98.70;;;;;;5072649;28;20052;-64
2021/09/12 03:03:06;;;;;;;17.35;15.52;;;18.80;99.00;;;;;;5071956;28;20040;-62
2021/09/12 03:05:32;;;;;;;18.20;15.88;;;18.80;99.00;;;;;;5082393;28;20031;-63
2021/09/12 03:07:58;;;;;;;17.73;15.93;;;18.80;99.00;;;;;;5086448;28;20043;-63
2021/09/12 03:10:23;;;;;;;22.95;17.48;;;18.80;98.90;;;;;;5097313;28;20809;-63
2021/09/12 03:12:49;;;;;;;18.35;16.40;;;18.70;99.30;;;;;;5102890;28;20039;-63
2021/09/12 03:15:14;;;;;;;20.42;17.23;;;18.60;99.50;;;;;;5093583;28;20032;-63
2021/09/12 03:17:40;;;;;;;22.05;18.23;;;18.60;99.30;;;;;;5103899;28;20074;-64
2021/09/12 03:20:06;;;;;;;20.27;17.02;;;18.60;99.50;;;;;;5098533;28;20044;-63
2021/09/12 03:22:32;;;;;;;20.98;17.83;;;18.50;99.60;;;;;;5113074;28;20039;-64
2021/09/12 03:24:57;;;;;;;20.13;18.02;;;18.50;99.60;;;;;;5108292;28;20048;-64
2021/09/12 03:27:23;;;;;;;21.38;18.48;;;18.50;99.60;;;;;;5106110;28;20395;-63
2021/09/12 03:29:48;;;;;;;20.70;18.48;;;18.60;99.40;;;;;;5112870;28;20080;-64
2021/09/12 03:32:14;;;;;;;19.13;17.10;;;18.50;99.60;;;;;;5105542;28;20051;-62
2021/09/12 03:34:39;;;;;;;21.55;17.85;;;18.50;99.70;;;;;;5110632;28;20543;-62
2021/09/12 03:37:05;;;;;;;20.70;18.42;;;18.60;99.70;;;;;;5097231;28;20526;-63
2021/09/12 03:39:31;;;;;;;21.77;17.90;;;18.60;99.90;;;;;;5089892;28;20040;-64
2021/09/12 03:41:56;;;;;;;18.33;16.52;;;18.60;99.60;;;;;;5079479;28;20037;-63
2021/09/12 03:44:22;;;;;;;20.50;18.25;;;18.70;99.60;;;;;;5076589;28;20043;-64
2021/09/12 03:46:48;;;;;;;23.17;18.02;;;18.70;99.40;;;;;;5076242;28;20125;-63
2021/09/12 03:49:13;;;;;;;23.70;18.38;;;18.70;99.50;;;;;;5076228;28;20094;-63
2021/09/12 03:51:39;;;;;;;20.30;18.10;;;18.70;99.10;;;;;;5094973;28;20491;-61
2021/09/12 03:54:04;;;;;;;18.50;16.70;;;18.70;99.40;;;;;;5096133;28;20047;-61
2021/09/12 03:56:30;;;;;;;20.73;18.00;;;18.70;99.50;;;;;;5096072;28;20031;-61
2021/09/12 03:58:55;;;;;;;19.10;16.85;;;18.70;99.50;;;;;;5096186;28;20147;-62
2021/09/12 04:01:21;;;;;;;18.50;16.35;;;18.80;99.40;;;;;;5096421;28;20044;-63
2021/09/12 04:03:47;;;;;;;21.23;18.08;;;18.80;99.30;;;;;;5095991;28;20040;-61
2021/09/12 04:06:12;;;;;;;23.13;20.27;;;18.70;99.40;;;;;;5096074;28;20040;-60
2021/09/12 04:08:38;;;;;;;20.35;18.25;;;18.50;99.70;;;;;;5094832;28;20093;-62
2021/09/12 04:11:03;;;;;;;21.73;19.30;;;18.50;99.90;;;;;;5096389;28;20036;-62
2021/09/12 04:13:29;;;;;;;20.40;17.90;;;18.50;99.80;;;;;;5094676;28;20447;-62
2021/09/12 04:15:54;;;;;;;20.25;18.25;;;18.50;99.80;;;;;;5096291;28;20036;-62
2021/09/12 04:18:20;;;;;;;19.80;17.80;;;18.50;99.80;;;;;;5095891;28;20146;-62
2021/09/12 04:20:48;;;;;;;19.35;16.98;;;18.50;99.80;;;;;;5095336;28;20044;-61
2021/09/12 04:23:14;;;;;;;22.55;18.42;;;18.60;99.70;;;;;;5095889;28;20032;-62
2021/09/12 04:25:40;;;;;;;21.92;18.15;;;18.60;99.60;;;;;;5096573;28;20055;-63
2021/09/12 04:28:05;;;;;;;20.10;18.05;;;18.60;99.50;;;;;;5096286;28;20036;-62
2021/09/12 04:30:31;;;;;;;21.30;18.10;;;18.70;99.40;;;;;;5096058;28;20514;-62
2021/09/12 04:32:56;;;;;;;18.92;16.88;;;18.70;99.40;;;;;;5095646;28;20056;-62
2021/09/12 04:35:22;;;;;;;18.95;17.05;;;18.70;99.40;;;;;;5096164;28;20369;-63
2021/09/12 04:37:48;;;;;;;20.60;17.45;;;18.60;99.30;;;;;;5096294;28;20433;-61
2021/09/12 04:40:13;;;;;;;20.00;17.85;;;18.60;99.40;;;;;;5094813;28;20523;-61
2021/09/12 04:42:39;;;;;;;19.10;17.23;;;18.60;99.40;;;;;;5095829;28;20067;-59
2021/09/12 04:45:05;;;;;;;20.27;18.10;;;18.60;99.30;;;;;;5095106;28;20036;-62
2021/09/12 04:47:31;;;;;;;19.58;17.60;;;18.70;99.30;;;;;;5094346;28;20054;-62
2021/09/12 04:49:56;;;;;;;20.88;18.67;;;18.70;99.20;;;;;;5095668;28;20044;-62
2021/09/12 04:52:22;;;;;;;20.40;18.38;;;18.70;99.10;;;;;;5095829;28;20479;-61
2021/09/12 04:54:48;;;;;;;20.17;18.20;;;18.60;99.20;;;;;;5095037;28;20501;-62
2021/09/12 04:57:13;;;;;;;20.02;18.02;;;18.60;99.30;;;;;;5095324;28;20497;-62
2021/09/12 04:59:39;;;;;;;20.95;18.73;;;18.60;99.30;;;;;;5095822;28;20171;-62
2021/09/12 05:02:05;;;;;;;19.15;17.25;;;18.50;99.30;;;;;;5094590;28;20043;-62
2021/09/12 05:04:31;;;;;;;18.38;16.50;;;18.50;99.40;;;;;;5093928;28;20043;-61
2021/09/12 05:06:56;;;;;;;21.13;18.98;;;18.60;99.50;;;;;;5094969;28;20028;-61
2021/09/12 05:09:23;;;;;;;19.52;17.55;;;18.60;99.20;;;;;;5094856;28;20387;-61
2021/09/12 05:11:49;;;;;;;23.15;19.27;;;18.60;99.40;;;;;;5093382;28;20035;-61
2021/09/12 05:14:15;;;;;;;22.90;19.42;;;18.50;99.60;;;;;;5095065;28;20035;-61
2021/09/12 05:16:41;;;;;;;22.05;19.75;;;18.50;99.60;;;;;;5094734;28;20502;-61
2021/09/12 05:19:06;;;;;;;23.23;18.90;;;18.50;99.50;;;;;;5093837;28;20040;-61
2021/09/12 05:21:32;;;;;;;24.60;22.10;;;18.40;99.80;;;;;;5094626;28;20074;-62
2021/09/12 05:23:58;;;;;;;21.38;19.15;;;18.40;99.80;;;;;;5094570;28;20039;-62
2021/09/12 05:26:23;;;;;;;23.27;20.90;;;18.30;99.90;;;;;;5095222;28;20107;-63
2021/09/12 05:28:49;;;;;;;20.58;18.42;;;18.10;99.90;;;;;;5086635;28;20031;-62
2021/09/12 05:31:14;;;;;;;20.20;18.13;;;18.20;99.90;;;;;;5074121;28;20068;-62
2021/09/12 05:33:40;;;;;;;21.10;18.98;;;18.30;99.90;;;;;;5091601;28;20043;-63
2021/09/12 05:36:06;;;;;;;19.55;17.65;;;18.50;99.60;;;;;;5076816;28;20052;-62
2021/09/12 05:38:31;;;;;;;20.17;18.23;;;18.50;99.70;;;;;;5075019;28;20142;-62
2021/09/12 05:40:57;;;;;;;20.52;18.35;;;18.40;99.70;;;;;;5074404;28;20036;-63
2021/09/12 05:43:22;;;;;;;19.27;17.38;;;18.40;99.60;;;;;;5090816;28;20043;-61
2021/09/12 05:45:48;;;;;;;19.77;17.77;;;18.50;99.40;;;;;;5093335;28;20097;-63
2021/09/12 05:48:13;;;;;;;20.55;18.30;;;18.70;99.10;;;;;;5094802;28;20074;-62
2021/09/12 05:50:39;;;;;;;21.02;18.17;;;18.80;98.90;;;;;;5093991;28;20028;-62
2021/09/12 05:53:09;;;;;;;20.13;16.88;;;18.60;99.20;;;;;;5094336;28;20035;-63
2021/09/12 05:55:35;;;;;;;21.88;19.67;;;18.50;99.40;;;;;;5094682;28;20036;-63
2021/09/12 05:58:01;;;;;;;20.23;18.23;;;18.40;99.40;;;;;;5093887;28;20036;-63
2021/09/12 06:00:27;;;;;;;20.48;18.38;;;18.40;99.40;;;;;;5073515;28;20115;-63
2021/09/12 06:02:52;;;;;;;21.33;18.88;;;18.50;99.10;;;;;;5073217;28;20058;-62
2021/09/12 06:05:18;;;;;;;20.23;18.13;;;18.30;99.40;;;;;;5073200;28;20059;-62
2021/09/12 06:07:43;;;;;;;20.70;18.60;;;18.30;99.30;;;;;;5072678;28;20109;-62
2021/09/12 06:10:09;;;;;;;20.23;18.08;;;18.30;99.50;;;;;;5073329;28;20033;-62
2021/09/12 06:12:35;;;;;;;18.85;16.88;;;18.40;99.60;;;;;;5073427;28;20130;-63
2021/09/12 06:15:01;;;;;;;21.30;19.20;;;18.40;99.30;;;;;;5072391;28;20068;-59
2021/09/12 06:17:26;;;;;;;24.30;21.65;;;18.40;99.40;;;;;;5072161;28;20048;-63
2021/09/12 06:19:52;;;;;;;20.63;18.52;;;18.30;99.40;;;;;;5076375;28;20035;-63
2021/09/12 06:22:17;;;;;;;23.50;19.88;;;18.40;99.50;;;;;;5094037;28;20028;-63
2021/09/12 06:24:44;;;;;;;20.95;18.83;;;18.40;99.40;;;;;;5094259;28;20036;-63
2021/09/12 06:27:09;;;;;;;22.83;20.42;;;18.50;99.40;;;;;;5092823;28;20032;-63
2021/09/12 06:29:35;;;;;;;20.90;18.83;;;18.40;99.20;;;;;;5094161;28;20383;-63
2021/09/12 06:32:01;;;;;;;22.15;19.90;;;18.50;99.40;;;;;;5093825;28;20024;-63
2021/09/12 06:34:27;;;;;;;19.65;17.75;;;18.50;99.30;;;;;;5093773;28;20035;-62
2021/09/12 06:36:52;;;;;;;22.20;19.23;;;18.50;99.40;;;;;;5093504;28;20628;-63
2021/09/12 06:39:21;;;;;;;20.92;18.73;;;18.40;99.40;;;;;;5093439;28;20495;-62
2021/09/12 06:41:47;;;;;;;20.08;18.08;;;18.40;99.50;;;;;;5094299;28;20036;-62
2021/09/12 06:44:13;;;;;;;19.77;17.75;;;18.60;99.30;;;;;;5094352;28;20032;-62
2021/09/12 06:46:39;;;;;;;21.50;19.30;;;18.60;99.60;;;;;;5093587;28;20490;-62
2021/09/12 06:49:04;;;;;;;19.75;17.75;;;18.60;99.50;;;;;;5094534;28;20122;-62
2021/09/12 06:51:30;;;;;;;20.98;18.77;;;18.50;99.50;;;;;;5093910;28;20390;-62
2021/09/12 06:53:55;;;;;;;20.42;18.17;;;18.60;99.50;;;;;;5093356;28;20058;-61
2021/09/12 06:56:21;;;;;;;23.30;19.00;;;18.70;99.30;;;;;;5093917;28;20041;-62
2021/09/12 06:58:47;;;;;;;23.23;20.77;;;18.70;99.40;;;;;;5092865;28;20131;-62
2021/09/12 07:01:12;;;;;;;21.25;18.65;;;18.80;99.30;;;;;;5092741;28;20407;-63
2021/09/12 07:03:38;;;;;;;22.73;20.42;;;19.00;99.10;;;;;;5092042;28;20048;-62
2021/09/12 07:06:03;;;;;;;21.13;18.92;;;19.00;99.10;;;;;;5091547;28;20035;-63
2021/09/12 07:08:29;;;;;;;22.50;20.30;;;19.00;98.90;;;;;;5093088;28;20068;-63
2021/09/12 07:10:55;;;;;;;19.67;17.67;;;19.10;98.70;;;;;;5091082;28;20024;-65
2021/09/12 07:13:20;;;;;;;21.88;19.58;;;19.30;98.60;;;;;;5092654;28;20387;-65
2021/09/12 07:15:46;;;;;;;20.63;18.52;;;19.40;98.30;;;;;;5092848;28;20498;-62
2021/09/12 07:18:11;;;;;;;21.20;19.02;;;19.10;98.80;;;;;;5092542;28;20036;-63
2021/09/12 07:20:37;;;;;;;21.25;19.15;;;19.20;98.40;;;;;;5092905;28;20487;-63
2021/09/12 07:23:03;;;;;;;22.23;20.15;;;19.20;98.10;;;;;;5093022;28;20446;-62
2021/09/12 07:25:29;;;;;;;19.65;17.65;;;19.20;98.40;;;;;;5092211;28;20035;-63
2021/09/12 07:27:54;;;;;;;18.52;16.52;;;19.30;98.10;;;;;;5092701;28;20556;-62
2021/09/12 07:30:20;;;;;;;19.73;17.25;;;19.40;98.00;;;;;;5093638;28;20115;-62
2021/09/12 07:32:47;;;;;;;16.23;14.65;;;19.50;97.70;;;;;;5091276;28;20093;-63
2021/09/12 07:35:13;;;;;;;16.83;15.23;;;19.70;97.40;;;;;;5075169;28;20047;-62
2021/09/12 07:37:39;;;;;;;15.95;14.35;;;19.90;97.40;;;;;;5094186;28;20027;-62
2021/09/12 07:40:06;;;;;;;14.70;13.02;;;19.80;96.40;;;;;;5094530;28;20044;-63
2021/09/12 07:42:31;;;;;;;15.48;13.70;;;19.90;96.60;;;;;;5093283;28;20032;-62
2021/09/12 07:44:57;;;;;;;14.70;13.15;;;20.00;96.10;;;;;;5092534;28;20123;-62
2021/09/12 07:47:23;;;;;;;14.10;12.68;;;19.80;96.40;;;;;;5092003;28;20433;-64
2021/09/12 07:49:48;;;;;;;13.98;12.45;;;19.80;96.30;;;;;;5092576;28;20655;-63
2021/09/12 07:52:14;;;;;;;15.68;13.05;;;20.10;95.90;;;;;;5093886;28;20039;-63
2021/09/12 07:54:39;;;;;;;13.45;12.15;;;20.20;95.50;;;;;;5092630;28;20387;-66
2021/09/12 07:57:05;;;;;;;13.43;12.00;;;20.20;95.70;;;;;;5093041;28;20039;-64
2021/09/12 07:59:30;;;;;;;13.77;12.25;;;20.20;95.60;;;;;;5093145;28;20040;-63
2021/09/12 08:01:56;;;;;;;13.43;12.10;;;20.20;95.60;;;;;;5093533;28;20042;-62
2021/09/12 08:04:22;;;;;;;14.88;12.57;;;20.20;95.40;;;;;;5093703;28;20029;-64
2021/09/12 08:06:48;;;;;;;13.25;12.02;;;20.30;94.90;;;;;;5092586;28;20364;-66
2021/09/12 08:09:13;;;;;;;12.57;11.38;;;20.40;95.00;;;;;;5092996;28;20036;-66
2021/09/12 08:11:39;;;;;;;15.65;14.00;;;20.50;94.90;;;;;;5092085;28;20036;-67
2021/09/12 08:14:05;;;;;;;13.45;11.32;;;20.50;94.80;;;;;;5092657;28;20502;-62
2021/09/12 08:16:30;;;;;;;12.63;11.32;;;20.40;95.10;;;;;;5093192;28;20043;-63
2021/09/12 08:18:56;;;;;;;13.68;12.25;;;20.50;95.00;;;;;;5093687;28;20055;-62
2021/09/12 08:21:22;;;;;;;14.48;13.00;;;20.60;94.80;;;;;;5094250;28;20047;-61
2021/09/12 08:23:47;;;;;;;14.45;12.98;;;20.60;94.70;;;;;;5095593;28;20119;-63
2021/09/12 08:26:16;;;;;;;12.77;11.57;;;20.70;94.70;;;;;;5079242;28;20032;-62
2021/09/12 08:28:41;;;;;;;14.60;13.05;;;20.90;94.70;;;;;;5096120;28;20024;-62
2021/09/12 08:31:07;;;;;;;13.15;11.70;;;21.20;94.20;;;;;;5096067;28;20456;-61
2021/09/12 08:33:33;;;;;;;12.88;11.50;;;21.00;94.00;;;;;;5095668;28;20107;-62
2021/09/12 08:35:59;;;;;;;13.18;11.88;;;21.00;94.10;;;;;;5095713;28;20050;-62
2021/09/12 08:38:24;;;;;;;13.48;12.27;;;21.20;93.80;;;;;;5096311;28;20044;-62
2021/09/12 08:40:57;;;;;;;14.45;12.95;;;21.20;93.50;;;;;;5094446;28;20135;-67
2021/09/12 08:43:22;;;;;;;13.07;10.98;;;21.40;93.30;;;;;;5094856;28;20448;-64
2021/09/12 08:45:49;;;;;;;12.95;10.98;;;21.60;93.20;;;;;;5088985;28;20033;-63
2021/09/12 08:48:15;;;;;;;11.55;10.35;;;21.70;93.10;;;;;;5103640;28;20095;-63
2021/09/12 08:50:41;;;;;;;11.13;10.00;;;21.80;92.80;;;;;;5109460;28;20063;-63
2021/09/12 08:53:06;;;;;;;11.80;10.70;;;21.80;92.50;;;;;;5085460;28;20067;-62
2021/09/12 08:55:32;;;;;;;13.30;12.00;;;21.60;92.60;;;;;;5106980;28;20055;-65
2021/09/12 08:57:59;;;;;;;11.50;10.30;;;21.50;93.10;;;;;;5114231;28;20028;-66
2021/09/12 09:00:26;;;;;;;12.13;10.93;;;21.50;93.20;;;;;;5115844;28;20122;-63
2021/09/12 09:03:02;;;;;;;11.05;9.95;;;21.60;92.80;;;;;;5115151;28;20046;-65
2021/09/12 09:05:31;;;;;;;10.95;9.85;;;21.80;92.50;;;;;;5115767;28;20070;-62
2021/09/12 09:08:14;;;;;;;10.05;9.10;;;21.60;92.30;;;;;;5115192;28;20032;-63
2021/09/12 09:10:50;;;;;;;9.40;8.50;;;21.50;92.80;;;;;;5115812;28;20053;-63
2021/09/12 09:13:34;;;;;;;9.93;8.80;;;21.30;92.90;;;;;;5073710;28;20035;-62
2021/09/12 09:16:03;;;;;;;10.82;9.77;;;21.20;93.30;;;;;;5076341;28;20098;-60
2021/09/12 09:18:35;;;;;;;11.00;9.80;;;21.10;93.80;;;;;;5090777;28;20040;-62
2021/09/12 09:21:22;;;;;;;12.63;9.73;;;20.90;94.10;;;;;;5095321;28;20039;-63
2021/09/12 09:24:01;;;;;;;9.98;9.02;;;20.60;94.50;;;;;;5087262;28;20043;-62
2021/09/12 09:26:26;;;;;;;9.70;8.80;;;20.60;94.40;;;;;;5092781;28;20063;-64
2021/09/12 09:28:55;;;;;;;11.23;10.13;;;20.70;94.40;;;;;;5098824;28;20077;-62
2021/09/12 09:31:23;;;;;;;11.25;10.05;;;20.50;94.50;;;;;;5105922;27;20032;-65
2021/09/12 09:33:49;;;;;;;10.98;9.85;;;20.70;94.40;;;;;;5115004;28;20031;-63
2021/09/12 09:36:17;;;;;;;13.20;11.52;;;20.70;94.50;;;;;;5095988;28;20560;-63
2021/09/12 09:38:47;;;;;;;12.75;11.52;;;20.80;94.40;;;;;;5081590;28;20036;-63
2021/09/12 09:41:18;;;;;;;11.82;10.50;;;20.80;94.30;;;;;;5107950;28;20429;-63
2021/09/12 09:43:53;;;;;;;10.63;9.60;;;21.00;94.20;;;;;;5088359;28;20084;-63
2021/09/12 09:46:31;;;;;;;11.10;9.90;;;21.10;94.20;;;;;;5096995;28;20047;-64
2021/09/12 09:48:59;;;;;;;11.65;8.68;;;21.30;93.70;;;;;;5115044;28;20035;-62
2021/09/12 09:51:26;;;;;;;8.48;7.65;;;21.50;93.40;;;;;;5105502;28;20024;-63
2021/09/12 09:53:52;;;;;;;8.13;7.40;;;21.60;92.90;;;;;;5107252;28;20031;-62
2021/09/12 09:56:18;;;;;;;7.90;6.93;;;21.60;92.90;;;;;;5098592;27;20035;-63
2021/09/12 09:58:44;;;;;;;7.82;7.10;;;21.40;93.00;;;;;;5115430;28;20172;-64
2021/09/12 10:01:10;;;;;;;7.88;6.53;;;21.50;93.20;;;;;;5107290;28;20032;-64
2021/09/12 10:03:37;;;;;;;6.90;6.20;;;21.30;93.30;;;;;;5105125;28;20482;-63
2021/09/12 10:06:03;;;;;;;7.57;6.22;;;21.20;93.40;;;;;;5098761;28;20028;-64
2021/09/12 10:08:29;;;;;;;7.00;6.30;;;21.20;93.30;;;;;;5110443;28;20035;-63
2021/09/12 10:10:56;;;;;;;8.15;5.85;;;21.30;93.30;;;;;;5099046;28;20502;-66
2021/09/12 10:13:24;;;;;;;7.22;5.90;;;21.50;93.40;;;;;;5105401;28;20035;-64
2021/09/12 10:15:55;;;;;;;9.55;6.60;;;21.70;93.10;;;;;;5103299;28;20035;-64
2021/09/12 10:18:28;;;;;;;8.23;7.43;;;21.80;93.00;;;;;;5114942;28;20031;-64
2021/09/12 10:20:54;;;;;;;9.07;7.45;;;21.70;93.30;;;;;;5095869;28;20028;-65
2021/09/12 10:23:24;;;;;;;8.38;7.63;;;21.60;93.60;;;;;;5097331;28;20032;-66
2021/09/12 10:25:50;;;;;;;9.30;8.40;;;21.50;93.60;;;;;;5106357;28;20020;-66
2021/09/12 10:28:29;;;;;;;10.00;7.95;;;21.20;94.20;;;;;;5106475;28;20038;-65
2021/09/12 10:30:55;;;;;;;7.93;7.18;;;21.40;93.80;;;;;;5097548;28;20036;-65
2021/09/12 10:33:26;;;;;;;7.30;6.70;;;21.70;93.60;;;;;;5109239;28;20035;-67
2021/09/12 10:35:55;;;;;;;7.10;6.40;;;21.60;93.80;;;;;;5103343;28;20028;-66
2021/09/12 10:38:42;;;;;;;7.25;6.57;;;21.70;93.40;;;;;;5099581;28;20516;-67
2021/09/12 10:41:09;;;;;;;6.68;6.07;;;21.60;93.10;;;;;;5110062;28;20040;-71
2021/09/12 10:43:38;;;;;;;6.60;5.82;;;21.70;93.00;;;;;;5099758;28;20067;-70
2021/09/12 10:46:09;;;;;;;7.22;6.00;;;21.60;93.30;;;;;;5102646;28;20032;-66
2021/09/12 10:48:40;;;;;;;6.78;6.18;;;21.70;93.00;;;;;;5109081;28;20046;-66
2021/09/12 10:51:26;;;;;;;6.57;5.93;;;21.80;93.10;;;;;;5095590;28;20036;-68
2021/09/12 10:53:55;;;;;;;8.70;6.45;;;22.00;93.00;;;;;;5097125;28;20231;-67
2021/09/12 10:56:21;;;;;;;7.68;6.60;;;21.90;92.80;;;;;;5093176;28;20028;-64
2021/09/12 10:58:57;;;;;;;7.20;6.50;;;22.00;92.80;;;;;;5090326;28;20036;-66
2021/09/12 11:01:29;;;;;;;6.78;6.13;;;22.30;92.40;;;;;;5088127;28;20118;-66
2021/09/12 11:03:59;;;;;;;6.47;5.88;;;22.30;92.20;;;;;;5089384;28;20502;-66
2021/09/12 11:06:27;;;;;;;6.38;5.88;;;22.40;92.10;;;;;;5093345;28;20127;-63
2021/09/12 11:08:53;;;;;;;5.85;5.25;;;22.30;92.10;;;;;;5093057;28;20052;-65
2021/09/12 11:11:19;;;;;;;6.15;5.40;;;22.50;91.20;;;;;;5080617;28;20511;-66
2021/09/12 11:13:44;;;;;;;6.47;5.88;;;22.80;90.70;;;;;;5071421;28;20040;-68
2021/09/12 11:16:19;;;;;;;7.05;6.15;;;22.90;90.50;;;;;;5072055;28;20060;-68
2021/09/12 11:18:55;;;;;;;7.65;6.80;;;23.00;90.80;;;;;;5091273;28;20077;-69
2021/09/12 11:21:27;;;;;;;9.27;7.20;;;23.00;90.90;;;;;;5090833;28;20119;-65
2021/09/12 11:24:07;;;;;;;8.27;7.50;;;23.30;90.70;;;;;;5091137;28;20035;-66
2021/09/12 11:26:40;;;;;;;7.63;6.80;;;23.10;90.70;;;;;;5094374;28;20031;-68
2021/09/12 11:29:11;;;;;;;7.50;6.65;;;23.20;90.30;;;;;;5091916;28;20085;-67
2021/09/12 11:31:38;;;;;;;8.38;6.57;;;22.80;90.50;;;;;;5081913;28;20094;-64
2021/09/12 11:34:04;;;;;;;7.97;6.32;;;22.80;90.60;;;;;;5090035;28;20023;-65
2021/09/12 11:37:03;;;;;;;6.18;5.57;;;22.60;91.00;;;;;;5093237;28;20496;-66
2021/09/12 11:39:37;;;;;;;5.53;5.03;;;22.40;91.30;;;;;;5093005;28;20047;-65
2021/09/12 11:42:08;;;;;;;5.45;4.68;;;22.60;91.00;;;;;;5078106;28;20027;-67
2021/09/12 11:44:35;;;;;;;4.85;4.43;;;22.60;90.70;;;;;;5092348;28;20135;-67
2021/09/12 11:47:03;;;;;;;4.70;4.30;;;22.80;90.40;;;;;;5092846;28;20028;-67
2021/09/12 11:49:29;;;;;;;6.03;3.97;;;22.80;90.10;;;;;;5093582;28;20032;-66
2021/09/12 11:51:55;;;;;;;6.07;4.50;;;22.70;90.40;;;;;;5093314;28;20040;-66
2021/09/12 11:54:27;;;;;;;4.22;3.85;;;22.80;90.60;;;;;;5092957;28;20046;-65
2021/09/12 11:57:13;;;;;;;5.10;4.60;;;23.00;90.30;;;;;;5093149;28;20036;-67
2021/09/12 11:59:42;;;;;;;7.85;4.97;;;23.30;89.90;;;;;;5095474;28;20040;-66
2021/09/12 12:02:13;;;;;;;5.60;4.93;;;23.30;90.20;;;;;;5095873;28;20085;-67
2021/09/12 12:04:41;;;;;;;5.05;4.50;;;23.10;90.10;;;;;;5076116;28;20033;-67
2021/09/12 12:07:07;;;;;;;5.05;4.55;;;23.00;90.10;;;;;;5058864;28;20109;-66
2021/09/12 12:09:42;;;;;;;5.25;4.60;;;23.00;90.00;;;;;;5076664;28;20036;-67
2021/09/12 12:12:19;;;;;;;7.25;5.65;;;23.20;88.90;;;;;;5076449;28;20024;-66
2021/09/12 12:14:52;;;;;;;6.93;5.85;;;23.20;88.90;;;;;;5075880;28;20036;-71
2021/09/12 12:17:22;;;;;;;6.50;5.20;;;23.10;89.60;;;;;;5075720;28;20048;-65
2021/09/12 12:19:49;;;;;;;5.80;5.07;;;23.40;89.00;;;;;;5077822;28;20040;-67
2021/09/12 12:22:16;;;;;;;5.55;4.75;;;23.50;88.30;;;;;;5096261;28;20047;-68
2021/09/12 12:24:45;;;;;;;5.82;5.18;;;23.60;87.20;;;;;;5095278;28;20028;-67
2021/09/12 12:27:13;;;;;;;6.07;5.00;;;23.80;86.30;;;;;;5095750;28;20394;-68
2021/09/12 12:29:41;;;;;;;6.47;4.93;;;23.60;86.80;;;;;;5096702;28;20058;-66